createdAt,value
2023-01-10T00:06:31.750Z,6.43
2023-01-10T00:21:33.803Z,6.50
2023-01-10T00:36:35.802Z,6.41
2023-01-10T00:51:38.005Z,6.36
2023-01-10T01:06:40.006Z,6.35
2023-01-10T01:21:42.088Z,6.39
2023-01-10T01:36:44.101Z,6.42
2023-01-10T01:51:52.121Z,6.45
2023-01-10T02:06:56.924Z,6.43
2023-01-10T02:22:13.882Z,6.46
2023-01-10T02:37:36.566Z,6.43
2023-01-10T02:52:38.681Z,6.49
2023-01-10T03:08:11.223Z,6.53
2023-01-10T03:23:15.379Z,6.54
2023-01-10T03:38:32.879Z,6.56
2023-01-10T03:53:37.647Z,6.59
2023-01-10T04:08:39.563Z,6.48
2023-01-10T04:23:41.562Z,6.45
2023-01-10T04:38:43.523Z,6.41
2023-01-10T04:53:45.441Z,6.38
2023-01-10T05:08:48.226Z,6.38
2023-01-10T05:23:50.200Z,6.32
2023-01-10T05:38:52.162Z,6.15
2023-01-10T05:53:54.201Z,6.15
2023-01-10T06:08:56.760Z,5.91
2023-01-10T06:23:58.762Z,5.82
2023-01-10T06:39:00.724Z,5.70
2023-01-10T06:54:02.725Z,5.70
2023-01-10T07:09:06.784Z,5.67
2023-01-10T07:24:09.460Z,5.66
2023-01-10T07:39:11.584Z,5.60
2023-01-10T07:54:14.847Z,5.59
2023-01-10T08:09:17.161Z,5.56
2023-01-10T08:24:19.067Z,5.53
2023-01-10T08:39:26.811Z,5.60
2023-01-10T08:54:28.981Z,5.62
2023-01-10T09:09:30.996Z,5.66
2023-01-10T09:24:32.921Z,5.79
2023-01-10T09:39:34.952Z,5.90
2023-01-10T09:54:41.777Z,6.05
2023-01-10T10:09:44.053Z,6.12
2023-01-10T10:24:57.984Z,6.10
2023-01-10T10:40:05.809Z,6.21
2023-01-10T10:55:14.520Z,6.24
2023-01-10T11:10:22.315Z,6.36
2023-01-10T11:25:24.502Z,6.50
2023-01-10T11:40:32.795Z,6.50
2023-01-10T11:55:38.052Z,6.59
2023-01-10T12:10:40.064Z,6.69
2023-01-10T12:25:43.735Z,6.77
2023-01-10T12:40:56.926Z,6.86
2023-01-10T12:56:05.291Z,6.83
2023-01-10T13:11:12.853Z,6.66
2023-01-10T13:26:14.993Z,6.56
2023-01-10T13:41:36.273Z,6.32
2023-01-10T13:56:43.984Z,6.18
2023-01-10T14:11:45.919Z,6.05
2023-01-10T14:26:48.356Z,5.77
2023-01-10T14:41:55.140Z,5.45
2023-01-10T14:56:57.813Z,5.19
2023-01-10T15:12:02.028Z,5.04
2023-01-10T15:27:13.282Z,4.79
2023-01-10T15:42:15.390Z,4.63
2023-01-10T15:57:28.022Z,4.42
2023-01-10T16:12:55.882Z,4.32
2023-01-10T16:27:58.441Z,4.08
2023-01-10T16:43:18.710Z,3.94
2023-01-10T16:58:21.245Z,3.81
2023-01-10T17:13:30.755Z,3.63
2023-01-10T17:28:32.884Z,3.39
2023-01-10T17:43:35.100Z,2.92
2023-01-10T17:58:37.228Z,2.52
2023-01-10T18:13:39.263Z,2.25
2023-01-10T18:28:44.771Z,1.84
2023-01-10T18:43:47.481Z,1.74
2023-01-10T18:58:49.667Z,1.98
2023-01-10T19:13:56.075Z,2.25
2023-01-10T19:28:58.136Z,2.42
2023-01-10T19:44:02.747Z,2.67
2023-01-10T19:59:04.807Z,3.08
2023-01-10T20:14:28.045Z,3.35
2023-01-10T20:29:30.088Z,3.55
2023-01-10T20:44:32.228Z,3.66
2023-01-10T20:59:34.212Z,3.78
2023-01-10T21:14:36.246Z,3.87
2023-01-10T21:29:38.264Z,4.08
2023-01-10T21:44:40.245Z,4.17
2023-01-10T21:59:42.247Z,4.14
2023-01-10T22:14:44.515Z,4.24
2023-01-10T22:29:46.487Z,4.36
2023-01-10T22:44:48.462Z,4.45
2023-01-10T22:59:50.444Z,4.40
2023-01-10T23:14:52.411Z,4.38
2023-01-10T23:29:54.384Z,4.39
2023-01-10T23:44:56.335Z,4.46
